Terminal Aerodrome Forecast
Issued by NWS

Home | Current Version | Previous Version | Text Only | Print | Product List | Glossary On
Versions: 1 2 3 4 5 6 7 8 9 10 11 12
000
FTUS46 KSGX 171100
TAFONT
TAF
KONT 171128Z 1712/1818 VRB05KT P6SM FEW100
     FM172000 26011KT P6SM SCT080 SCT120
     FM180300 VRB05KT P6SM FEW150
     FM181200 VRB03KT 5SM BR SCT010
     FM181600 VRB04KT 6SM HZ SKC=

USA.gov is the U.S. government's official web portal to all federal, state and local government web resources and services.